Wetterdaten: Woche 11.12.17 - 17.12.17 (KW50)
Datum Zeit Temp. A. Pool Temp. Feuchte A. Luftdruck Regen Wind Richtung Sonnenschein ET UV Solar Taupunkt Windchill Windben Empfang
11.12.2017 00:00 -0,3 C 3,9 C 96 % 992,8 hPa 0,0 l/m 4,9 km/h (1 Bft) NO 0,00 h 0,000 mm 0,0 UV-I 0 W/m -0,8 C -0,8 C 8,0 km/h (2 Bft) 98,07 %
11.12.2017 01:00 -0,5 C 3,9 C 96 % 992,0 hPa 0,0 l/m 4,8 km/h (1 Bft) O-NO 0,00 h 0,000 mm 0,0 UV-I 0 W/m -1,0 C -0,8 C 7,3 km/h (2 Bft) 98,75 %
11.12.2017 02:00 -1,1 C 3,9 C 96 % 991,9 hPa 0,0 l/m 1,3 km/h (1 Bft) O-NO 0,00 h 0,000 mm 0,0 UV-I 0 W/m -1,6 C -1,1 C 2,6 km/h (1 Bft) 98,62 %
11.12.2017 03:00 -1,2 C 3,9 C 97 % 992,3 hPa 0,0 l/m 2,2 km/h (1 Bft) NO 0,00 h 0,000 mm 0,0 UV-I 0 W/m -1,6 C -1,2 C 3,6 km/h (1 Bft) 97,64 %
11.12.2017 04:00 -1,4 C 3,9 C 97 % 992,4 hPa 0,0 l/m 1,6 km/h (1 Bft) NO 0,00 h 0,000 mm 0,0 UV-I 0 W/m -1,8 C -1,4 C 2,8 km/h (1 Bft) 96,89 %
11.12.2017 05:00 -1,5 C 3,9 C 96 % 991,7 hPa 0,0 l/m 1,2 km/h (1 Bft) O-SO 0,00 h 0,000 mm 0,0 UV-I 0 W/m -2,0 C -1,5 C 2,8 km/h (1 Bft) 99,15 %
11.12.2017 06:00 -2,1 C 3,9 C 96 % 991,3 hPa 0,0 l/m 1,9 km/h (1 Bft) SW 0,00 h 0,000 mm 0,0 UV-I 0 W/m -2,6 C -2,1 C 3,5 km/h (1 Bft) 97,51 %
11.12.2017 07:00 -2,3 C 3,9 C 97 % 991,1 hPa 0,0 l/m 0,9 km/h (0 Bft) S 0,00 h 0,000 mm 0,0 UV-I 6 W/m -2,8 C -2,3 C 2,4 km/h (1 Bft) 97,23 %
11.12.2017 08:00 -1,9 C 3,9 C 97 % 991,1 hPa 0,0 l/m 0,8 km/h (0 Bft) S-SO 0,00 h 0,000 mm 0,0 UV-I 32 W/m -2,3 C -1,9 C 2,0 km/h (1 Bft) 96,58 %
11.12.2017 09:00 -0,3 C 3,9 C 93 % 990,4 hPa 0,0 l/m 5,4 km/h (1 Bft) O-NO 0,00 h 0,000 mm 0,0 UV-I 78 W/m -1,3 C -1,2 C 8,8 km/h (2 Bft) 98,91 %
11.12.2017 10:00 0,8 C 3,9 C 89 % 990,0 hPa 0,0 l/m 9,1 km/h (2 Bft) O-NO 0,00 h 0,025 mm 0,0 UV-I 90 W/m -0,7 C -1,9 C 13,9 km/h (3 Bft) 98,54 %
11.12.2017 11:00 1,0 C 3,9 C 89 % 988,7 hPa 0,0 l/m 6,7 km/h (2 Bft) NO 0,00 h 0,051 mm 0,0 UV-I 99 W/m -0,6 C 0,3 C 10,4 km/h (2 Bft) 98,31 %
11.12.2017 12:00 1,1 C 3,9 C 91 % 987,4 hPa 0,2 l/m 6,0 km/h (2 Bft) NO 0,00 h 0,051 mm 0,0 UV-I 80 W/m -0,2 C 0,7 C 9,2 km/h (2 Bft) 96,34 %
11.12.2017 13:00 1,3 C 3,9 C 92 % 986,9 hPa 0,6 l/m 2,6 km/h (1 Bft) S-SW 0,00 h 0,025 mm 0,0 UV-I 75 W/m 0,1 C 1,3 C 5,0 km/h (1 Bft) 98,47 %
11.12.2017 14:00 1,1 C 3,9 C 93 % 987,0 hPa 0,2 l/m 1,9 km/h (1 Bft) S-SW 0,00 h 0,026 mm 0,0 UV-I 36 W/m 0,1 C 1,1 C 3,8 km/h (1 Bft) 98,61 %
11.12.2017 15:00 1,1 C 3,9 C 93 % 986,9 hPa 0,2 l/m 1,4 km/h (1 Bft) S-SW 0,53 h 0,025 mm 0,0 UV-I 44 W/m 0,1 C 1,1 C 2,9 km/h (1 Bft) 98,29 %
11.12.2017 16:00 0,4 C 3,9 C 95 % 986,4 hPa 0,0 l/m 1,7 km/h (1 Bft) O-NO 0,00 h 0,026 mm 0,0 UV-I 8 W/m -0,3 C 0,4 C 3,7 km/h (1 Bft) 97,66 %
11.12.2017 17:00 0,2 C 3,9 C 96 % 986,4 hPa 0,0 l/m 1,7 km/h (1 Bft) NO 0,00 h 0,000 mm 0,0 UV-I 0 W/m -0,4 C 0,2 C 3,5 km/h (1 Bft) 96,38 %
11.12.2017 18:00 1,2 C 3,9 C 95 % 986,7 hPa 0,0 l/m 4,1 km/h (1 Bft) NO 0,00 h 0,000 mm 0,0 UV-I 0 W/m 0,4 C 0,8 C 6,2 km/h (2 Bft) 99,41 %
11.12.2017 19:00 5,7 C 3,9 C 83 % 987,0 hPa 0,2 l/m 9,5 km/h (2 Bft) O 0,00 h 0,000 mm 0,0 UV-I 0 W/m 3,0 C 3,4 C 13,7 km/h (3 Bft) 98,23 %
11.12.2017 20:00 2,4 C 3,9 C 91 % 987,0 hPa 0,2 l/m 1,5 km/h (1 Bft) NO 0,00 h 0,025 mm 0,0 UV-I 0 W/m 1,0 C 2,3 C 3,5 km/h (1 Bft) 98,83 %
11.12.2017 21:00 3,7 C 3,9 C 89 % 987,6 hPa 0,0 l/m 6,7 km/h (2 Bft) O-SO 0,00 h 0,000 mm 0,0 UV-I 0 W/m 2,0 C 2,3 C 11,6 km/h (2 Bft) 99,37 %
11.12.2017 22:00 2,9 C 3,9 C 89 % 989,8 hPa 0,0 l/m 13,1 km/h (3 Bft) SW 0,00 h 0,000 mm 0,0 UV-I 0 W/m 1,2 C -2,1 C 19,5 km/h (3 Bft) 95,03 %
11.12.2017 23:00 4,3 C 3,9 C 84 % 991,4 hPa 0,2 l/m 17,9 km/h (3 Bft) W-SW 0,00 h 0,025 mm 0,0 UV-I 0 W/m 1,9 C -3,2 C 25,5 km/h (4 Bft) 98,13 %
12.12.2017 00:00 4,1 C 3,9 C 87 % 993,1 hPa 0,0 l/m 15,3 km/h (3 Bft) W-SW 0,00 h 0,000 mm 0,0 UV-I 0 W/m 2,1 C -2,1 C 22,8 km/h (4 Bft) 98,64 %
12.12.2017 01:00 4,5 C 3,9 C 87 % 994,8 hPa 0,0 l/m 12,3 km/h (3 Bft) SW 0,00 h 0,025 mm 0,0 UV-I 0 W/m 2,5 C 0,0 C 17,2 km/h (3 Bft) 98,35 %
12.12.2017 02:00 4,8 C 3,9 C 86 % 996,3 hPa 0,0 l/m 10,6 km/h (2 Bft) W-SW 0,00 h 0,026 mm 0,0 UV-I 0 W/m 2,7 C 1,5 C 14,2 km/h (3 Bft) 99,15 %
12.12.2017 03:00 4,6 C 3,9 C 87 % 998,1 hPa 0,2 l/m 9,8 km/h (2 Bft) W-SW 0,00 h 0,025 mm 0,0 UV-I 0 W/m 2,7 C 1,9 C 14,2 km/h (3 Bft) 98,17 %
12.12.2017 04:00 3,8 C 3,9 C 92 % 999,8 hPa 1,4 l/m 15,4 km/h (3 Bft) SW 0,00 h 0,026 mm 0,0 UV-I 0 W/m 2,7 C -2,5 C 22,7 km/h (4 Bft) 97,64 %
12.12.2017 05:00 3,3 C 3,9 C 94 % 1001,6 hPa 1,8 l/m 13,6 km/h (3 Bft) SW 0,00 h 0,000 mm 0,0 UV-I 0 W/m 2,5 C -2,2 C 19,5 km/h (3 Bft) 96,64 %
12.12.2017 06:00 3,6 C 3,9 C 94 % 1002,9 hPa 1,0 l/m 12,9 km/h (3 Bft) S-SW 0,00 h 0,000 mm 0,0 UV-I 0 W/m 2,8 C -1,4 C 20,2 km/h (4 Bft) 99,45 %
12.12.2017 07:00 4,4 C 3,9 C 93 % 1003,2 hPa 0,4 l/m 8,7 km/h (2 Bft) S-SO 0,00 h 0,000 mm 0,0 UV-I 0 W/m 3,4 C 2,5 C 16,2 km/h (3 Bft) 97,74 %
12.12.2017 08:00 4,9 C 3,9 C 91 % 1004,4 hPa 0,0 l/m 7,5 km/h (2 Bft) S 0,00 h 0,000 mm 0,0 UV-I 8 W/m 3,5 C 3,9 C 12,9 km/h (3 Bft) 99,45 %
12.12.2017 09:00 4,6 C 3,9 C 92 % 1006,2 hPa 0,0 l/m 7,9 km/h (2 Bft) S-SW 0,00 h 0,000 mm 0,0 UV-I 23 W/m 3,5 C 3,2 C 12,8 km/h (3 Bft) 96,04 %
12.12.2017 10:00 4,6 C 3,9 C 90 % 1008,1 hPa 0,0 l/m 13,9 km/h (3 Bft) W-SW 0,00 h 0,025 mm 0,0 UV-I 53 W/m 3,1 C -0,6 C 21,3 km/h (4 Bft) 98,05 %
12.12.2017 11:00 4,0 C 3,9 C 85 % 1009,6 hPa 0,0 l/m 13,1 km/h (3 Bft) W 0,00 h 0,025 mm 0,0 UV-I 68 W/m 1,8 C -1,0 C 21,0 km/h (4 Bft) 98,88 %
12.12.2017 12:00 2,9 C 3,9 C 91 % 1010,6 hPa 0,0 l/m 11,4 km/h (2 Bft) W-SW 0,00 h 0,051 mm 0,0 UV-I 76 W/m 1,5 C -1,2 C 17,3 km/h (3 Bft) 98,59 %
12.12.2017 13:00 3,4 C 3,9 C 87 % 1011,2 hPa 0,0 l/m 12,1 km/h (2 Bft) SW 0,00 h 0,026 mm 0,0 UV-I 66 W/m 1,4 C -1,1 C 17,9 km/h (3 Bft) 98,20 %
12.12.2017 14:00 3,0 C 3,9 C 85 % 1012,1 hPa 0,0 l/m 11,0 km/h (2 Bft) W-SW 0,00 h 0,050 mm 0,0 UV-I 29 W/m 0,8 C -0,8 C 16,8 km/h (3 Bft) 96,88 %
12.12.2017 15:00 2,7 C 3,9 C 87 % 1013,0 hPa 0,0 l/m 8,1 km/h (2 Bft) SW 0,00 h 0,026 mm 0,0 UV-I 13 W/m 0,8 C 1,1 C 12,9 km/h (3 Bft) 99,22 %
12.12.2017 16:00 2,4 C 3,9 C 88 % 1013,9 hPa 0,0 l/m 8,3 km/h (2 Bft) SW 0,00 h 0,025 mm 0,0 UV-I 5 W/m 0,6 C 0,6 C 12,6 km/h (3 Bft) 97,99 %
12.12.2017 17:00 2,3 C 3,9 C 87 % 1014,9 hPa 0,0 l/m 8,9 km/h (2 Bft) SW 0,00 h 0,000 mm 0,0 UV-I 0 W/m 0,4 C 0,0 C 13,6 km/h (3 Bft) 98,26 %
12.12.2017 18:00 2,0 C 3,9 C 91 % 1015,7 hPa 0,2 l/m 9,4 km/h (2 Bft) SW 0,00 h 0,000 mm 0,0 UV-I 0 W/m 0,6 C -0,8 C 14,8 km/h (3 Bft) 95,45 %
12.12.2017 19:00 1,7 C 3,9 C 93 % 1016,6 hPa 0,2 l/m 8,9 km/h (2 Bft) SW 0,00 h 0,000 mm 0,0 UV-I 0 W/m 0,7 C -0,6 C 14,0 km/h (3 Bft) 99,33 %
12.12.2017 20:00 1,6 C 3,9 C 93 % 1016,9 hPa 0,0 l/m 9,0 km/h (2 Bft) S-SW 0,00 h 0,000 mm 0,0 UV-I 0 W/m 0,7 C -0,8 C 14,8 km/h (3 Bft) 97,43 %
12.12.2017 21:00 1,5 C 3,9 C 94 % 1017,0 hPa 0,0 l/m 10,3 km/h (2 Bft) S-SW 0,00 h 0,000 mm 0,0 UV-I 0 W/m 0,6 C -2,0 C 16,0 km/h (3 Bft) 98,87 %
12.12.2017 22:00 1,5 C 3,9 C 92 % 1017,5 hPa 0,0 l/m 8,4 km/h (2 Bft) SW 0,00 h 0,000 mm 0,0 UV-I 0 W/m 0,4 C -0,4 C 13,3 km/h (3 Bft) 95,40 %
12.12.2017 23:00 1,6 C 3,9 C 91 % 1018,1 hPa 0,0 l/m 9,8 km/h (2 Bft) SW 0,00 h 0,000 mm 0,0 UV-I 0 W/m 0,2 C -1,5 C 15,2 km/h (3 Bft) 98,70 %
13.12.2017 00:00 1,4 C 3,9 C 90 % 1018,3 hPa 0,0 l/m 8,1 km/h (2 Bft) SW 0,00 h 0,000 mm 0,0 UV-I 0 W/m -0,0 C -0,2 C 12,8 km/h (3 Bft) 97,28 %
13.12.2017 01:00 1,4 C 3,9 C 89 % 1018,6 hPa 0,0 l/m 7,7 km/h (2 Bft) SW 0,00 h 0,000 mm 0,0 UV-I 0 W/m -0,2 C 0,0 C 11,6 km/h (2 Bft) 98,29 %
13.12.2017 02:00 1,4 C 3,9 C 89 % 1019,1 hPa 0,0 l/m 7,7 km/h (2 Bft) SW 0,00 h 0,000 mm 0,0 UV-I 0 W/m -0,1 C 0,1 C 11,9 km/h (2 Bft) 96,25 %
13.12.2017 03:00 1,2 C 3,9 C 89 % 1019,0 hPa 0,0 l/m 8,0 km/h (2 Bft) W-SW 0,00 h 0,000 mm 0,0 UV-I 0 W/m -0,3 C -0,4 C 12,1 km/h (2 Bft) 97,87 %
13.12.2017 04:00 1,0 C 3,9 C 90 % 1018,9 hPa 0,0 l/m 7,2 km/h (2 Bft) SW 0,00 h 0,000 mm 0,0 UV-I 0 W/m -0,5 C 0,1 C 10,9 km/h (2 Bft) 99,35 %
13.12.2017 05:00 0,4 C 3,9 C 91 % 1019,1 hPa 0,0 l/m 7,1 km/h (2 Bft) SW 0,00 h 0,000 mm 0,0 UV-I 0 W/m -0,9 C -0,3 C 10,9 km/h (2 Bft) 97,51 %
13.12.2017 06:00 0,4 C 3,9 C 89 % 1019,3 hPa 0,0 l/m 8,7 km/h (2 Bft) W-SW 0,00 h 0,000 mm 0,0 UV-I 0 W/m -1,1 C -1,8 C 13,4 km/h (3 Bft) 96,86 %
13.12.2017 07:00 0,5 C 3,9 C 86 % 1019,7 hPa 0,0 l/m 8,8 km/h (2 Bft) W-SW 0,03 h 0,000 mm 0,0 UV-I 7 W/m -1,5 C -1,8 C 13,0 km/h (3 Bft) 96,86 %
13.12.2017 08:00 -0,1 C 3,9 C 88 % 1019,6 hPa 0,0 l/m 3,9 km/h (1 Bft) S-SW 0,53 h 0,000 mm 0,0 UV-I 66 W/m -1,8 C -0,1 C 6,4 km/h (2 Bft) 98,63 %
13.12.2017 09:00 1,0 C 3,9 C 85 % 1019,2 hPa 0,0 l/m 2,9 km/h (1 Bft) N-NO 1,00 h 0,025 mm 0,0 UV-I 198 W/m -1,2 C 1,0 C 4,9 km/h (1 Bft) 97,55 %
13.12.2017 10:00 1,7 C 3,9 C 85 % 1018,7 hPa 0,0 l/m 4,8 km/h (1 Bft) NO 1,00 h 0,077 mm 0,5 UV-I 269 W/m -0,5 C 1,7 C 6,3 km/h (2 Bft) 98,33 %
13.12.2017 11:00 2,9 C 3,9 C 83 % 1017,8 hPa 0,0 l/m 3,5 km/h (1 Bft) NO 1,00 h 0,101 mm 0,6 UV-I 326 W/m 0,3 C 2,9 C 5,7 km/h (1 Bft) 97,47 %
13.12.2017 12:00 3,5 C 3,9 C 79 % 1016,9 hPa 0,0 l/m 6,2 km/h (2 Bft) O-NO 0,97 h 0,127 mm 0,6 UV-I 305 W/m 0,2 C 3,2 C 9,2 km/h (2 Bft) 98,02 %
13.12.2017 13:00 4,2 C 3,9 C 71 % 1015,4 hPa 0,0 l/m 4,8 km/h (1 Bft) O-NO 1,00 h 0,127 mm 0,5 UV-I 267 W/m -0,6 C 4,1 C 8,3 km/h (2 Bft) 97,65 %
13.12.2017 14:00 4,3 C 3,9 C 66 % 1013,7 hPa 0,0 l/m 6,7 km/h (2 Bft) O-NO 1,00 h 0,127 mm 0,0 UV-I 174 W/m -1,6 C 3,8 C 10,0 km/h (2 Bft) 97,58 %
13.12.2017 15:00 3,1 C 3,9 C 74 % 1012,3 hPa 0,0 l/m 7,8 km/h (2 Bft) NO 0,97 h 0,076 mm 0,0 UV-I 65 W/m -1,1 C 1,7 C 11,8 km/h (2 Bft) 96,69 %
13.12.2017 16:00 1,3 C 3,9 C 83 % 1011,5 hPa 0,0 l/m 5,2 km/h (1 Bft) NO 0,00 h 0,051 mm 0,0 UV-I 7 W/m -1,2 C 1,3 C 7,1 km/h (2 Bft) 99,58 %
13.12.2017 17:00 0,6 C 3,9 C 86 % 1010,4 hPa 0,0 l/m 2,0 km/h (1 Bft) NO 0,00 h 0,000 mm 0,0 UV-I 0 W/m -1,4 C 0,6 C 3,4 km/h (1 Bft) 97,53 %
13.12.2017 18:00 -0,4 C 3,9 C 89 % 1009,7 hPa 0,0 l/m 1,3 km/h (1 Bft) NO 0,00 h 0,000 mm 0,0 UV-I 0 W/m -2,0 C -0,4 C 2,1 km/h (1 Bft) 96,54 %
13.12.2017 19:00 -0,6 C 3,9 C 90 % 1008,2 hPa 0,0 l/m 3,3 km/h (1 Bft) O 0,00 h 0,000 mm 0,0 UV-I 0 W/m -2,0 C -0,6 C 5,4 km/h (1 Bft) 98,45 %
13.12.2017 20:00 -0,9 C 3,9 C 92 % 1006,7 hPa 0,0 l/m 2,2 km/h (1 Bft) O-SO 0,00 h 0,000 mm 0,0 UV-I 0 W/m -2,0 C -0,9 C 3,7 km/h (1 Bft) 96,97 %
13.12.2017 21:00 -0,9 C 3,9 C 93 % 1005,8 hPa 0,0 l/m 1,3 km/h (1 Bft) NO 0,00 h 0,000 mm 0,0 UV-I 0 W/m -1,9 C -0,9 C 2,9 km/h (1 Bft) 98,53 %
13.12.2017 22:00 -1,3 C 3,9 C 92 % 1005,2 hPa 0,0 l/m 2,0 km/h (1 Bft) NW 0,00 h 0,000 mm 0,0 UV-I 0 W/m -2,4 C -1,3 C 3,8 km/h (1 Bft) 95,68 %
13.12.2017 23:00 -1,6 C 3,9 C 93 % 1003,4 hPa 0,0 l/m 1,3 km/h (1 Bft) SO 0,00 h 0,000 mm 0,0 UV-I 0 W/m -2,6 C -1,6 C 2,8 km/h (1 Bft) 98,92 %
14.12.2017 00:00 -1,1 C 3,9 C 92 % 1001,8 hPa 0,0 l/m 2,5 km/h (1 Bft) O-NO 0,00 h 0,000 mm 0,0 UV-I 0 W/m -2,3 C -1,2 C 4,6 km/h (1 Bft) 97,72 %
14.12.2017 01:00 -1,3 C 3,9 C 93 % 1001,0 hPa 0,0 l/m 1,5 km/h (1 Bft) SO 0,00 h 0,000 mm 0,0 UV-I 0 W/m -2,3 C -1,3 C 3,2 km/h (1 Bft) 97,55 %
14.12.2017 02:00 -0,8 C 3,9 C 93 % 1000,6 hPa 0,0 l/m 3,6 km/h (1 Bft) W 0,00 h 0,000 mm 0,0 UV-I 0 W/m -1,8 C -1,2 C 6,7 km/h (2 Bft) 96,61 %
14.12.2017 03:00 -0,5 C 3,9 C 92 % 1000,7 hPa 0,0 l/m 2,8 km/h (1 Bft) S-SO 0,00 h 0,000 mm 0,0 UV-I 0 W/m -1,6 C -0,5 C 5,1 km/h (1 Bft) 99,02 %
14.12.2017 04:00 -0,3 C 3,9 C 93 % 999,2 hPa 0,0 l/m 3,9 km/h (1 Bft) S-SO 0,00 h 0,000 mm 0,0 UV-I 0 W/m -1,4 C -0,5 C 7,6 km/h (2 Bft) 97,84 %
14.12.2017 05:00 -0,5 C 3,9 C 94 % 998,9 hPa 0,0 l/m 2,1 km/h (1 Bft) SO 0,00 h 0,000 mm 0,0 UV-I 0 W/m -1,4 C -0,6 C 5,1 km/h (1 Bft) 96,83 %
14.12.2017 06:00 -0,2 C 3,9 C 95 % 999,3 hPa 0,0 l/m 3,9 km/h (1 Bft) O-SO 0,00 h 0,000 mm 0,0 UV-I 0 W/m -0,9 C -0,3 C 6,6 km/h (2 Bft) 97,35 %
14.12.2017 07:00 0,3 C 3,9 C 94 % 999,4 hPa 0,0 l/m 2,5 km/h (1 Bft) S-SO 0,00 h 0,000 mm 0,0 UV-I 5 W/m -0,5 C 0,2 C 5,7 km/h (1 Bft) 97,88 %
14.12.2017 08:00 0,9 C 3,9 C 94 % 1000,0 hPa 0,0 l/m 5,1 km/h (1 Bft) S 0,00 h 0,000 mm 0,0 UV-I 15 W/m 0,0 C 0,1 C 8,9 km/h (2 Bft) 98,01 %
14.12.2017 09:00 3,1 C 3,9 C 88 % 1003,2 hPa 0,2 l/m 21,5 km/h (4 Bft) W-SW 0,00 h 0,000 mm 0,0 UV-I 32 W/m 1,4 C -5,9 C 35,6 km/h (5 Bft) 97,35 %
14.12.2017 10:00 3,8 C 3,9 C 84 % 1004,3 hPa 0,8 l/m 23,6 km/h (4 Bft) SW 0,00 h 0,025 mm 0,0 UV-I 55 W/m 1,3 C -5,9 C 37,0 km/h (5 Bft) 96,54 %
14.12.2017 11:00 4,2 C 3,9 C 75 % 1004,5 hPa 0,0 l/m 22,5 km/h (4 Bft) S-SW 0,00 h 0,051 mm 0,0 UV-I 53 W/m 0,1 C -5,1 C 36,5 km/h (5 Bft) 97,23 %
14.12.2017 12:00 4,2 C 3,9 C 73 % 1004,9 hPa 0,0 l/m 14,3 km/h (3 Bft) W-SW 0,00 h 0,076 mm 0,0 UV-I 72 W/m -0,2 C -1,3 C 21,5 km/h (4 Bft) 98,66 %
14.12.2017 13:00 4,5 C 3,9 C 70 % 1004,3 hPa 0,0 l/m 5,9 km/h (2 Bft) W-SW 0,00 h 0,051 mm 0,0 UV-I 99 W/m -0,5 C 3,5 C 10,4 km/h (2 Bft) 97,95 %
14.12.2017 14:00 4,1 C 3,9 C 72 % 1004,1 hPa 0,0 l/m 0,8 km/h (0 Bft) O-SO 0,00 h 0,051 mm 0,0 UV-I 55 W/m -0,5 C 4,1 C 1,9 km/h (1 Bft) 97,55 %
14.12.2017 15:00 2,9 C 3,9 C 80 % 1004,0 hPa 0,0 l/m 2,9 km/h (1 Bft) O-SO 0,00 h 0,025 mm 0,0 UV-I 21 W/m -0,2 C 2,9 C 4,5 km/h (1 Bft) 95,18 %
14.12.2017 16:00 3,7 C 3,9 C 73 % 1003,7 hPa 0,0 l/m 8,2 km/h (2 Bft) W-SW 0,00 h 0,026 mm 0,0 UV-I 5 W/m -0,8 C 1,6 C 12,6 km/h (3 Bft) 98,80 %
14.12.2017 17:00 4,4 C 3,9 C 69 % 1003,4 hPa 0,0 l/m 6,8 km/h (2 Bft) W-SW 0,00 h 0,025 mm 0,0 UV-I 0 W/m -0,8 C 3,5 C 11,1 km/h (2 Bft) 97,76 %
14.12.2017 18:00 2,8 C 3,9 C 77 % 1003,0 hPa 0,0 l/m 3,4 km/h (1 Bft) SO 0,00 h 0,026 mm 0,0 UV-I 0 W/m -0,9 C 2,4 C 5,3 km/h (1 Bft) 97,82 %
14.12.2017 19:00 2,1 C 3,9 C 80 % 1001,8 hPa 0,0 l/m 5,5 km/h (1 Bft) O-SO 0,00 h 0,000 mm 0,0 UV-I 0 W/m -0,9 C 1,8 C 8,7 km/h (2 Bft) 97,44 %
14.12.2017 20:00 2,6 C 3,9 C 79 % 1000,8 hPa 0,0 l/m 5,8 km/h (2 Bft) O-SO 0,00 h 0,000 mm 0,0 UV-I 0 W/m -0,7 C 1,5 C 9,6 km/h (2 Bft) 94,61 %
14.12.2017 21:00 2,3 C 3,9 C 81 % 999,9 hPa 0,0 l/m 4,1 km/h (1 Bft) S-SW 0,00 h 0,025 mm 0,0 UV-I 0 W/m -0,6 C 2,0 C 6,4 km/h (2 Bft) 98,86 %
14.12.2017 22:00 3,5 C 3,9 C 80 % 999,3 hPa 0,0 l/m 5,7 km/h (1 Bft) SW 0,00 h 0,000 mm 0,0 UV-I 0 W/m 0,5 C 3,1 C 9,4 km/h (2 Bft) 97,61 %
14.12.2017 23:00 3,4 C 3,9 C 83 % 998,5 hPa 0,0 l/m 2,3 km/h (1 Bft) SW 0,00 h 0,000 mm 0,0 UV-I 0 W/m 0,8 C 3,4 C 3,6 km/h (1 Bft) 99,14 %
15.12.2017 00:00 2,4 C 3,9 C 89 % 997,7 hPa 0,0 l/m 1,0 km/h (0 Bft) SW 0,00 h 0,000 mm 0,0 UV-I 0 W/m 0,7 C 2,4 C 2,3 km/h (1 Bft) 97,07 %
15.12.2017 01:00 1,7 C 3,9 C 91 % 996,5 hPa 0,0 l/m 1,6 km/h (1 Bft) SW 0,00 h 0,000 mm 0,0 UV-I 0 W/m 0,5 C 1,7 C 2,7 km/h (1 Bft) 96,66 %
15.12.2017 02:00 1,4 C 3,9 C 93 % 996,2 hPa 0,0 l/m 2,1 km/h (1 Bft) SW 0,00 h 0,000 mm 0,0 UV-I 0 W/m 0,4 C 1,4 C 3,1 km/h (1 Bft) 99,26 %
15.12.2017 03:00 1,3 C 3,9 C 93 % 995,8 hPa 0,0 l/m 1,4 km/h (1 Bft) SW 0,00 h 0,000 mm 0,0 UV-I 0 W/m 0,2 C 1,3 C 2,5 km/h (1 Bft) 97,40 %
15.12.2017 04:00 0,9 C 3,9 C 93 % 995,6 hPa 0,0 l/m 3,0 km/h (1 Bft) SO 0,00 h 0,000 mm 0,0 UV-I 0 W/m -0,0 C 0,9 C 4,4 km/h (1 Bft) 99,11 %
15.12.2017 05:00 1,6 C 3,9 C 94 % 997,4 hPa 1,4 l/m 8,0 km/h (2 Bft) W-SW 0,00 h 0,000 mm 0,0 UV-I 0 W/m 0,8 C -0,4 C 11,8 km/h (2 Bft) 95,64 %
15.12.2017 06:00 2,3 C 3,9 C 95 % 997,7 hPa 0,2 l/m 6,6 km/h (2 Bft) S-SW 0,00 h 0,000 mm 0,0 UV-I 0 W/m 1,6 C 1,6 C 11,5 km/h (2 Bft) 98,33 %
15.12.2017 07:00 2,3 C 3,9 C 94 % 998,4 hPa 0,0 l/m 5,3 km/h (1 Bft) S-SW 0,00 h 0,000 mm 0,0 UV-I 5 W/m 1,5 C 1,6 C 10,0 km/h (2 Bft) 97,69 %
15.12.2017 08:00 3,3 C 3,9 C 87 % 999,3 hPa 0,0 l/m 10,4 km/h (2 Bft) SW 0,00 h 0,000 mm 0,0 UV-I 17 W/m 1,4 C 0,0 C 16,0 km/h (3 Bft) 99,30 %
15.12.2017 09:00 3,8 C 3,9 C 84 % 1000,2 hPa 0,0 l/m 8,4 km/h (2 Bft) SW 0,00 h 0,025 mm 0,0 UV-I 39 W/m 1,4 C 2,0 C 13,2 km/h (3 Bft) 97,53 %
15.12.2017 10:00 3,9 C 3,9 C 83 % 1000,5 hPa 0,0 l/m 7,3 km/h (2 Bft) SW 0,00 h 0,026 mm 0,0 UV-I 62 W/m 1,3 C 2,9 C 11,0 km/h (2 Bft) 96,78 %
15.12.2017 11:00 4,3 C 3,9 C 82 % 1000,7 hPa 0,0 l/m 11,7 km/h (2 Bft) SW 0,17 h 0,025 mm 0,2 UV-I 123 W/m 1,6 C 0,1 C 17,4 km/h (3 Bft) 98,14 %
15.12.2017 12:00 4,9 C 3,9 C 80 % 1000,6 hPa 0,0 l/m 11,2 km/h (2 Bft) SW 0,23 h 0,076 mm 0,2 UV-I 167 W/m 1,7 C 1,2 C 17,4 km/h (3 Bft) 98,64 %
15.12.2017 13:00 5,1 C 3,9 C 77 % 1000,5 hPa 0,0 l/m 9,9 km/h (2 Bft) SW 0,07 h 0,077 mm 0,0 UV-I 120 W/m 1,4 C 2,3 C 15,6 km/h (3 Bft) 98,19 %
15.12.2017 14:00 4,8 C 3,9 C 77 % 1000,6 hPa 0,0 l/m 7,6 km/h (2 Bft) SW 0,07 h 0,076 mm 0,0 UV-I 70 W/m 1,1 C 3,4 C 12,1 km/h (2 Bft) 98,77 %
15.12.2017 15:00 4,2 C 3,9 C 79 % 1000,6 hPa 0,0 l/m 4,7 km/h (1 Bft) W-SW 0,00 h 0,051 mm 0,0 UV-I 28 W/m 0,8 C 4,0 C 7,2 km/h (2 Bft) 96,46 %
15.12.2017 16:00 3,5 C 3,9 C 80 % 1000,7 hPa 0,0 l/m 4,0 km/h (1 Bft) SW 0,00 h 0,025 mm 0,0 UV-I 5 W/m 0,4 C 3,5 C 6,1 km/h (2 Bft) 97,87 %
15.12.2017 17:00 2,6 C 3,9 C 83 % 1000,6 hPa 0,0 l/m 1,9 km/h (1 Bft) S 0,00 h 0,000 mm 0,0 UV-I 0 W/m -0,0 C 2,6 C 3,7 km/h (1 Bft) 99,02 %
15.12.2017 18:00 2,8 C 3,9 C 81 % 1000,7 hPa 0,0 l/m 4,3 km/h (1 Bft) S 0,00 h 0,000 mm 0,0 UV-I 0 W/m -0,2 C 2,8 C 6,9 km/h (2 Bft) 97,84 %
15.12.2017 19:00 3,4 C 3,9 C 78 % 1001,0 hPa 0,0 l/m 7,7 km/h (2 Bft) S-SW 0,00 h 0,000 mm 0,0 UV-I 0 W/m -0,1 C 2,2 C 11,8 km/h (2 Bft) 98,47 %
15.12.2017 20:00 3,0 C 3,9 C 80 % 1001,1 hPa 0,0 l/m 7,0 km/h (2 Bft) SW 0,00 h 0,025 mm 0,0 UV-I 0 W/m -0,1 C 2,3 C 10,9 km/h (2 Bft) 95,59 %
15.12.2017 21:00 2,7 C 3,9 C 81 % 1001,0 hPa 0,0 l/m 8,1 km/h (2 Bft) SW 0,00 h 0,026 mm 0,0 UV-I 0 W/m -0,2 C 1,2 C 12,1 km/h (2 Bft) 99,45 %
15.12.2017 22:00 2,7 C 3,9 C 81 % 1001,5 hPa 0,0 l/m 9,9 km/h (2 Bft) W-SW 0,00 h 0,025 mm 0,0 UV-I 0 W/m -0,2 C -0,3 C 14,7 km/h (3 Bft) 98,03 %
15.12.2017 23:00 2,6 C 3,9 C 82 % 1001,9 hPa 0,0 l/m 7,0 km/h (2 Bft) W-SW 0,00 h 0,026 mm 0,0 UV-I 0 W/m -0,1 C 1,0 C 10,5 km/h (2 Bft) 98,84 %
16.12.2017 00:00 2,1 C 3,9 C 84 % 1002,0 hPa 0,0 l/m 3,9 km/h (1 Bft) S-SW 0,00 h 0,000 mm 0,0 UV-I 0 W/m -0,3 C 2,1 C 6,3 km/h (2 Bft) 96,64 %
16.12.2017 01:00 1,3 C 3,9 C 86 % 1002,0 hPa 0,0 l/m 5,3 km/h (1 Bft) SW 0,00 h 0,000 mm 0,0 UV-I 0 W/m -0,7 C 1,3 C 7,3 km/h (2 Bft) 97,48 %
16.12.2017 02:00 0,5 C 3,9 C 88 % 1002,4 hPa 0,0 l/m 3,0 km/h (1 Bft) S-SW 0,00 h 0,000 mm 0,0 UV-I 0 W/m -1,2 C 0,5 C 4,7 km/h (1 Bft) 99,44 %
16.12.2017 03:00 -0,3 C 3,9 C 91 % 1002,5 hPa 0,0 l/m 2,4 km/h (1 Bft) S-SW 0,00 h 0,000 mm 0,0 UV-I 0 W/m -1,6 C -0,3 C 3,5 km/h (1 Bft) 97,50 %
16.12.2017 04:00 -0,4 C 3,9 C 92 % 1002,7 hPa 0,0 l/m 1,1 km/h (0 Bft) S-SW 0,00 h 0,000 mm 0,0 UV-I 0 W/m -1,6 C -0,4 C 2,0 km/h (1 Bft) 96,92 %
16.12.2017 05:00 -0,8 C 3,9 C 93 % 1003,1 hPa 0,0 l/m 1,2 km/h (1 Bft) S-SW 0,00 h 0,000 mm 0,0 UV-I 0 W/m -1,7 C -0,8 C 2,7 km/h (1 Bft) 97,72 %
16.12.2017 06:00 -0,9 C 3,9 C 93 % 1003,5 hPa 0,0 l/m 4,0 km/h (1 Bft) S-SW 0,00 h 0,000 mm 0,0 UV-I 0 W/m -1,8 C -0,9 C 5,9 km/h (2 Bft) 99,03 %
16.12.2017 07:00 0,2 C 3,9 C 92 % 1004,2 hPa 0,0 l/m 6,6 km/h (2 Bft) W-SW 0,00 h 0,000 mm 0,0 UV-I 5 W/m -0,9 C -0,4 C 10,5 km/h (2 Bft) 98,66 %
16.12.2017 08:00 0,7 C 3,9 C 93 % 1005,0 hPa 0,0 l/m 8,6 km/h (2 Bft) SW 0,00 h 0,000 mm 0,0 UV-I 15 W/m -0,3 C -1,4 C 13,1 km/h (3 Bft) 95,51 %
16.12.2017 09:00 1,6 C 3,9 C 91 % 1005,9 hPa 0,0 l/m 10,1 km/h (2 Bft) SW 0,00 h 0,000 mm 0,0 UV-I 63 W/m 0,3 C -1,7 C 15,0 km/h (3 Bft) 98,85 %
16.12.2017 10:00 2,5 C 3,9 C 88 % 1006,9 hPa 0,0 l/m 8,3 km/h (2 Bft) W-SW 0,22 h 0,025 mm 0,0 UV-I 110 W/m 0,8 C 0,8 C 11,9 km/h (2 Bft) 94,58 %
16.12.2017 11:00 2,9 C 3,9 C 88 % 1007,2 hPa 0,0 l/m 7,8 km/h (2 Bft) SW 0,00 h 0,051 mm 0,0 UV-I 91 W/m 1,0 C 1,5 C 11,2 km/h (2 Bft) 97,24 %
16.12.2017 12:00 3,4 C 3,9 C 85 % 1007,7 hPa 0,0 l/m 8,6 km/h (2 Bft) W-SW 0,00 h 0,051 mm 0,0 UV-I 86 W/m 1,2 C 1,5 C 12,3 km/h (3 Bft) 96,67 %
16.12.2017 13:00 3,8 C 3,9 C 84 % 1008,2 hPa 0,0 l/m 6,7 km/h (2 Bft) W-SW 0,03 h 0,051 mm 0,0 UV-I 96 W/m 1,4 C 3,0 C 10,4 km/h (2 Bft) 97,63 %
16.12.2017 14:00 3,0 C 3,9 C 90 % 1008,9 hPa 0,2 l/m 7,3 km/h (2 Bft) W-SW 0,00 h 0,051 mm 0,0 UV-I 35 W/m 1,5 C 1,3 C 11,0 km/h (2 Bft) 96,23 %
16.12.2017 15:00 2,7 C 3,9 C 91 % 1009,7 hPa 0,0 l/m 6,8 km/h (2 Bft) W-SW 0,02 h 0,025 mm 0,0 UV-I 21 W/m 1,3 C 1,9 C 9,8 km/h (2 Bft) 97,68 %
16.12.2017 16:00 2,2 C 3,9 C 93 % 1010,4 hPa 0,0 l/m 6,5 km/h (2 Bft) SW 0,00 h 0,025 mm 0,0 UV-I 6 W/m 1,2 C 1,7 C 9,2 km/h (2 Bft) 96,16 %
16.12.2017 17:00 2,0 C 3,9 C 94 % 1011,1 hPa 0,0 l/m 8,6 km/h (2 Bft) SW 0,00 h 0,000 mm 0,0 UV-I 0 W/m 1,2 C 0,0 C 12,7 km/h (3 Bft) 97,46 %
16.12.2017 18:00 1,9 C 3,9 C 94 % 1011,9 hPa 0,0 l/m 8,9 km/h (2 Bft) W-SW 0,00 h 0,000 mm 0,0 UV-I 0 W/m 1,0 C -0,4 C 12,9 km/h (3 Bft) 96,81 %
16.12.2017 19:00 1,5 C 3,9 C 94 % 1012,9 hPa 0,2 l/m 9,7 km/h (2 Bft) W 0,00 h 0,000 mm 0,0 UV-I 0 W/m 0,7 C -1,5 C 14,8 km/h (3 Bft) 96,23 %
16.12.2017 20:00 1,2 C 3,9 C 95 % 1014,1 hPa 0,2 l/m 11,0 km/h (2 Bft) W 0,00 h 0,000 mm 0,0 UV-I 0 W/m 0,5 C -2,8 C 16,3 km/h (3 Bft) 97,68 %
16.12.2017 21:00 1,3 C 3,9 C 93 % 1015,3 hPa 0,0 l/m 12,2 km/h (2 Bft) W-SW 0,00 h 0,000 mm 0,0 UV-I 0 W/m 0,3 C -3,5 C 16,8 km/h (3 Bft) 96,88 %
16.12.2017 22:00 1,2 C 3,9 C 92 % 1015,8 hPa 0,0 l/m 11,0 km/h (2 Bft) W-SW 0,00 h 0,000 mm 0,0 UV-I 0 W/m -0,0 C -2,8 C 15,6 km/h (3 Bft) 97,75 %
16.12.2017 23:00 1,0 C 3,9 C 92 % 1016,5 hPa 0,0 l/m 9,2 km/h (2 Bft) S-SW 0,00 h 0,000 mm 0,0 UV-I 0 W/m -0,1 C -1,6 C 13,2 km/h (3 Bft) 96,16 %
17.12.2017 00:00 0,6 C 3,9 C 95 % 1016,8 hPa 0,0 l/m 7,8 km/h (2 Bft) SW 0,00 h 0,000 mm 0,0 UV-I 0 W/m -0,1 C -0,8 C 11,5 km/h (2 Bft) 98,19 %
17.12.2017 01:00 0,6 C 3,9 C 96 % 1016,8 hPa 0,0 l/m 10,8 km/h (2 Bft) SW 0,00 h 0,000 mm 0,0 UV-I 0 W/m 0,0 C -3,3 C 15,3 km/h (3 Bft) 96,09 %
17.12.2017 02:00 0,8 C 3,9 C 95 % 1017,2 hPa 0,0 l/m 9,0 km/h (2 Bft) SW 0,00 h 0,000 mm 0,0 UV-I 0 W/m 0,0 C -1,7 C 13,1 km/h (3 Bft) 97,53 %
17.12.2017 03:00 0,8 C 3,9 C 94 % 1017,4 hPa 0,0 l/m 8,1 km/h (2 Bft) S-SW 0,00 h 0,000 mm 0,0 UV-I 0 W/m -0,1 C -0,9 C 11,9 km/h (2 Bft) 96,30 %
17.12.2017 04:00 0,8 C 3,9 C 94 % 1017,7 hPa 0,0 l/m 10,0 km/h (2 Bft) SW 0,00 h 0,000 mm 0,0 UV-I 0 W/m -0,1 C -2,5 C 14,9 km/h (3 Bft) 97,97 %
17.12.2017 05:00 0,5 C 3,9 C 94 % 1018,0 hPa 0,0 l/m 9,1 km/h (2 Bft) SW 0,00 h 0,000 mm 0,0 UV-I 0 W/m -0,4 C -2,0 C 12,9 km/h (3 Bft) 96,01 %
17.12.2017 06:00 0,4 C 3,9 C 94 % 1018,3 hPa 0,0 l/m 9,4 km/h (2 Bft) SW 0,00 h 0,000 mm 0,0 UV-I 0 W/m -0,4 C -2,3 C 13,1 km/h (3 Bft) 97,68 %
17.12.2017 07:00 0,7 C 3,9 C 93 % 1018,8 hPa 0,0 l/m 9,0 km/h (2 Bft) W-SW 0,00 h 0,000 mm 0,0 UV-I 6 W/m -0,3 C -1,7 C 13,0 km/h (3 Bft) 97,39 %
17.12.2017 08:00 0,4 C 3,9 C 95 % 1019,3 hPa 0,0 l/m 8,9 km/h (2 Bft) W-SW 0,00 h 0,000 mm 0,0 UV-I 20 W/m -0,2 C -1,8 C 12,6 km/h (3 Bft) 97,17 %
17.12.2017 09:00 0,5 C 3,9 C 96 % 1019,9 hPa 0,0 l/m 8,9 km/h (2 Bft) SW 0,00 h 0,000 mm 0,0 UV-I 53 W/m -0,1 C -1,9 C 13,0 km/h (3 Bft) 96,45 %
17.12.2017 10:00 0,7 C 3,9 C 95 % 1020,3 hPa 0,0 l/m 11,0 km/h (2 Bft) SW 0,00 h 0,025 mm 0,0 UV-I 85 W/m 0,1 C -3,3 C 15,4 km/h (3 Bft) 97,39 %
17.12.2017 11:00 1,1 C 3,9 C 93 % 1020,5 hPa 0,6 l/m 10,0 km/h (2 Bft) SW 0,02 h 0,025 mm 0,0 UV-I 99 W/m 0,2 C -2,1 C 14,5 km/h (3 Bft) 97,39 %
17.12.2017 12:00 1,7 C 3,9 C 91 % 1020,3 hPa 0,4 l/m 13,0 km/h (3 Bft) W-SW 0,05 h 0,051 mm 0,0 UV-I 134 W/m 0,4 C -3,6 C 18,1 km/h (3 Bft) 97,53 %
17.12.2017 13:00 1,3 C 3,9 C 91 % 1020,2 hPa 0,0 l/m 15,5 km/h (3 Bft) W-SW 0,00 h 0,051 mm 0,0 UV-I 75 W/m 0,0 C -5,6 C 21,3 km/h (4 Bft) 95,90 %
17.12.2017 14:00 1,0 C 3,9 C 93 % 1020,4 hPa 0,0 l/m 12,2 km/h (2 Bft) W-SW 0,07 h 0,026 mm 0,0 UV-I 56 W/m 0,1 C -3,9 C 16,6 km/h (3 Bft) 97,56 %
17.12.2017 15:00 0,9 C 3,9 C 94 % 1020,9 hPa 0,2 l/m 12,9 km/h (3 Bft) W-SW 0,08 h 0,025 mm 0,0 UV-I 26 W/m 0,0 C -4,5 C 17,6 km/h (3 Bft) 98,29 %
17.12.2017 16:00 0,9 C 3,9 C 93 % 1021,5 hPa 0,0 l/m 13,7 km/h (3 Bft) W-SW 0,00 h 0,026 mm 0,0 UV-I 5 W/m -0,1 C -5,0 C 18,8 km/h (3 Bft) 99,61 %
17.12.2017 17:00 0,9 C 3,9 C 91 % 1022,2 hPa 0,0 l/m 15,8 km/h (3 Bft) W 0,00 h 0,000 mm 0,0 UV-I 0 W/m -0,4 C -6,3 C 21,5 km/h (4 Bft) 95,82 %
17.12.2017 18:00 0,9 C 3,9 C 90 % 1022,9 hPa 0,0 l/m 15,0 km/h (3 Bft) W-SW 0,00 h 0,000 mm 0,0 UV-I 0 W/m -0,5 C -5,9 C 20,9 km/h (4 Bft) 99,08 %
17.12.2017 19:00 0,8 C 3,9 C 89 % 1023,4 hPa 0,0 l/m 15,2 km/h (3 Bft) W-SW 0,00 h 0,000 mm 0,0 UV-I 0 W/m -0,8 C -6,0 C 21,2 km/h (4 Bft) 97,72 %
17.12.2017 20:00 0,7 C 3,9 C 89 % 1023,8 hPa 0,0 l/m 15,6 km/h (3 Bft) W-SW 0,00 h 0,025 mm 0,0 UV-I 0 W/m -0,9 C -6,4 C 22,1 km/h (4 Bft) 98,99 %
17.12.2017 21:00 0,7 C 3,9 C 88 % 1024,0 hPa 0,0 l/m 17,6 km/h (3 Bft) W-SW 0,00 h 0,025 mm 0,0 UV-I 0 W/m -1,1 C -7,4 C 24,4 km/h (4 Bft) 95,82 %
17.12.2017 22:00 0,7 C 3,9 C 87 % 1024,3 hPa 0,0 l/m 16,6 km/h (3 Bft) W-SW 0,00 h 0,026 mm 0,0 UV-I 0 W/m -1,1 C -7,0 C 22,7 km/h (4 Bft) 98,64 %
17.12.2017 23:00 0,5 C 3,9 C 88 % 1024,6 hPa 0,0 l/m 16,3 km/h (3 Bft) W-SW 0,00 h 0,025 mm 0,0 UV-I 0 W/m -1,3 C -7,0 C 22,8 km/h (4 Bft) 98,63 %
Min-Datum _ 11.12.17 11.12.17 13.12.17 11.12.17 - 11.12.17 - - - - - 11.12.17 17.12.17 11.12.17 17.12.17
_ Min-Zeit 07:10 00:00 14:36 17:08 - 02:14 - - - - - 07:50 21:52 02:14 14:03
Minimum _ -2,6 C 3,9 C 62 % 986,1 hPa - 0,0 km/h (0 Bft) - - - - - -3,1 C -10,5 C 0,0 km/h (0 Bft) 13,04 %
Max-Datum _ 11.12.17 11.12.17 11.12.17 17.12.17 12.12.17 14.12.17 - 16.12.17 13.12.17 13.12.17 13.12.17 11.12.17 11.12.17 14.12.17 11.12.17
_ Max-Zeit 19:24 00:00 00:04 23:55 05:04 09:12 - 10:35 12:00 11:08 12:14 19:14 21:38 09:12 00:12
Maximum _ 9,7 C 3,9 C 97 % 1024,8 hPa 1,8 l/m 35,3 km/h
W-SW (5 Bft)
- 0,08 h 0,127 mm 0,6 UV-I 385 W/m 5,1 C 7,8 C 74,0 km/h
W-SW (8 Bft)
100,00 %
Durchschnitt _ 1,7 C 3,9 C 89 % 1005,9 hPa #11,4 l/m 7,5 km/h (2 Bft) W-SW #9:03 h #2,793 mm 0,4 UV-I 68 W/m 0,0 C -0,3 C 11,4 km/h (2 Bft) 97,69 %